Aviation Digital Data Service (ADDS)

Output produced by TAFs form (0151 UTC 27 June 2017)
found at http://www.aviationweather.gov/adds/tafs/
 
METAR text: NSTU 270051Z 13008KT 12SM SCT018 30/28 A2987 RMK SLP113 T02980276
Conditions at: NSTU (PAGO PAGO , WS) observed 0051 UTC 27 June 2017
Temperature: 29.8°C (86°F)
Dewpoint: 27.6°C (82°F) [RH = 88%]
Pressure (altimeter): 29.87 inches Hg (1011.6 mb)
[Sea-level pressure: 1011.3 mb]
Winds: from the SE (130 degrees) at 9 MPH (8 knots; 4.2 m/s)
Visibility: 12 miles (19 km)
Ceiling: at least 12,000 feet AGL
Clouds: scattered clouds at 1800 feet AGL
Weather: no significant weather observed at this time

Forecast for: NSTU (PAGO PAGO , WS)
Text: NSTU 262337Z 2700/2724 13009KT P6SM FEW020 SCT040
Forecast period: 0000 UTC 27 June 2017 to 0000 UTC 28 June 2017
Forecast type: FROM: standard forecast or significant change
Winds: from the SE (130 degrees) at 10 MPH (9 knots; 4.7 m/s)
Visibility: 6 or more miles (10+ km)
Clouds: few clouds at 2000 feet AGL
scattered clouds at 4000 feet AGL
Weather: no significant weather forecast for this period